createdAt,value
2022-12-04T00:00:27.865Z,94198.22
2022-12-04T00:02:54.755Z,94199.59
2022-12-04T00:05:21.627Z,94216.75
2022-12-04T00:07:49.617Z,94191.75
2022-12-04T00:10:16.461Z,94201.34
2022-12-04T00:12:43.226Z,94199.13
2022-12-04T00:15:26.635Z,94182.53
2022-12-04T00:17:53.798Z,94180.34
2022-12-04T00:20:21.688Z,94158.88
2022-12-04T00:22:49.431Z,94161.31
2022-12-04T00:25:16.673Z,94180.91
2022-12-04T00:27:43.444Z,94192.41
2022-12-04T00:30:10.770Z,94169.78
2022-12-04T00:32:37.561Z,94192.47
2022-12-04T00:35:04.601Z,94189.66
2022-12-04T00:37:33.430Z,94189.22
2022-12-04T00:40:00.565Z,94190.56
2022-12-04T00:42:27.264Z,94182.16
2022-12-04T00:44:54.065Z,94191.72
2022-12-04T00:47:21.038Z,94199.16
2022-12-04T00:49:47.780Z,94180.78
2022-12-04T00:52:14.452Z,94179.59
2022-12-04T00:54:41.178Z,94139.06
2022-12-04T00:57:07.885Z,94160.75
2022-12-04T00:59:35.527Z,94166.75
2022-12-04T01:02:02.189Z,94157.06
2022-12-04T01:04:28.925Z,94172.59
2022-12-04T01:06:58.056Z,94198.13
2022-12-04T01:09:28.408Z,94185.03
2022-12-04T01:11:55.416Z,94176.88
2022-12-04T01:14:22.170Z,94202.06
2022-12-04T01:16:49.915Z,94211.22
2022-12-04T01:19:17.050Z,94196.75
2022-12-04T01:21:43.765Z,94207.00
2022-12-04T01:24:10.741Z,94221.97
2022-12-04T01:26:37.733Z,94214.91
2022-12-04T01:29:05.047Z,94188.22
2022-12-04T01:31:32.253Z,94190.81
2022-12-04T01:33:58.992Z,94177.25
2022-12-04T01:36:28.279Z,94161.84
2022-12-04T01:38:55.922Z,94165.22
2022-12-04T01:41:28.661Z,94208.84
2022-12-04T01:44:17.026Z,94179.97
2022-12-04T01:46:46.748Z,94175.00
2022-12-04T01:49:23.829Z,94145.03
2022-12-04T01:52:03.525Z,94146.69
2022-12-04T01:54:37.403Z,94171.47
2022-12-04T01:57:30.049Z,94164.03
2022-12-04T02:00:05.721Z,94137.34
2022-12-04T02:02:35.731Z,94165.69
2022-12-04T02:05:05.617Z,94175.50
2022-12-04T02:07:33.233Z,94171.66
2022-12-04T02:10:03.970Z,94163.06
2022-12-04T02:12:39.679Z,94157.53
2022-12-04T02:15:12.420Z,94109.19
2022-12-04T02:17:55.719Z,94125.63
2022-12-04T02:20:41.297Z,94140.44
2022-12-04T02:23:26.754Z,94140.41
2022-12-04T02:26:21.659Z,94140.03
2022-12-04T02:28:51.836Z,94124.63
2022-12-04T02:31:27.449Z,94126.69
2022-12-04T02:34:18.353Z,94141.78
2022-12-04T02:36:52.632Z,94133.84
2022-12-04T02:39:28.269Z,94152.31
2022-12-04T02:42:01.579Z,94150.63
2022-12-04T02:44:51.696Z,94139.41
2022-12-04T02:47:22.350Z,94149.47
2022-12-04T02:50:15.035Z,94149.94
2022-12-04T02:52:47.584Z,94115.44
2022-12-04T02:55:33.596Z,94130.50
2022-12-04T02:58:07.049Z,94132.81
2022-12-04T03:00:36.094Z,94144.06
2022-12-04T03:03:11.148Z,94152.38
2022-12-04T03:05:58.137Z,94122.41
2022-12-04T03:08:36.382Z,94119.19
2022-12-04T03:11:03.566Z,94139.88
2022-12-04T03:13:46.017Z,94152.59
2022-12-04T03:16:36.493Z,94139.44
2022-12-04T03:19:10.242Z,94154.13
2022-12-04T03:21:41.339Z,94152.13
2022-12-04T03:24:27.170Z,94155.53
2022-12-04T03:27:10.317Z,94113.22
2022-12-04T03:29:55.351Z,94137.41
2022-12-04T03:32:26.694Z,94119.88
2022-12-04T03:34:59.697Z,94114.59
2022-12-04T03:37:42.865Z,94106.63
2022-12-04T03:40:12.569Z,94099.72
2022-12-04T03:43:06.456Z,94117.75
2022-12-04T03:45:46.191Z,94086.75
2022-12-04T03:48:26.598Z,94092.91
2022-12-04T03:51:04.894Z,94135.66
2022-12-04T03:53:40.968Z,94118.97
2022-12-04T03:56:19.184Z,94115.44
2022-12-04T03:59:04.925Z,94090.47
2022-12-04T04:01:38.368Z,94077.03
2022-12-04T04:04:10.757Z,94092.66
2022-12-04T04:06:41.054Z,94121.41
2022-12-04T04:09:18.913Z,94106.19
2022-12-04T04:12:09.545Z,94099.00
2022-12-04T04:15:00.241Z,94100.47
2022-12-04T04:17:50.706Z,94108.53
2022-12-04T04:20:48.987Z,94106.06
2022-12-04T04:23:37.012Z,94100.16
2022-12-04T04:26:04.474Z,94119.59
2022-12-04T04:28:34.720Z,94130.72
2022-12-04T04:31:15.900Z,94127.38
2022-12-04T04:34:13.547Z,94093.88
2022-12-04T04:36:51.643Z,94092.97
2022-12-04T04:39:41.371Z,94086.41
2022-12-04T04:42:33.385Z,94081.56
2022-12-04T04:45:09.040Z,94071.09
2022-12-04T04:47:38.513Z,94089.91
2022-12-04T04:50:09.301Z,94088.09
2022-12-04T04:52:39.771Z,94109.31
2022-12-04T04:55:08.267Z,94112.22
2022-12-04T04:57:37.253Z,94108.94
2022-12-04T05:00:11.239Z,94103.19
2022-12-04T05:02:38.744Z,94113.59
2022-12-04T05:05:07.161Z,94108.72
2022-12-04T05:07:33.911Z,94145.56
2022-12-04T05:10:00.662Z,94137.91
2022-12-04T05:12:27.801Z,94121.88
2022-12-04T05:14:54.471Z,94121.63
2022-12-04T05:17:22.066Z,94117.59
2022-12-04T05:19:57.243Z,94094.56
2022-12-04T05:22:31.730Z,94108.72
2022-12-04T05:24:59.741Z,94111.28
2022-12-04T05:27:28.910Z,94111.41
2022-12-04T05:29:58.077Z,94097.09
2022-12-04T05:32:26.808Z,94107.91
2022-12-04T05:34:55.618Z,94117.00
2022-12-04T05:37:23.657Z,94133.19
2022-12-04T05:39:50.358Z,94127.06
2022-12-04T05:42:17.186Z,94124.19
2022-12-04T05:44:44.240Z,94129.81
2022-12-04T05:47:11.812Z,94109.22
2022-12-04T05:49:39.175Z,94120.53
2022-12-04T05:52:06.189Z,94111.00
2022-12-04T05:54:32.908Z,94124.84
2022-12-04T05:56:59.711Z,94120.34
2022-12-04T05:59:26.909Z,94131.88
2022-12-04T06:01:54.369Z,94142.28
2022-12-04T06:04:21.143Z,94153.38
2022-12-04T06:06:47.905Z,94152.53
2022-12-04T06:09:14.783Z,94140.78
2022-12-04T06:11:42.864Z,94131.31
2022-12-04T06:14:13.126Z,94144.69
2022-12-04T06:16:45.656Z,94136.44
2022-12-04T06:19:18.904Z,94125.13
2022-12-04T06:21:48.230Z,94106.50
2022-12-04T06:24:18.048Z,94122.50
2022-12-04T06:27:11.254Z,94112.84
2022-12-04T06:29:32.929Z,94096.56
2022-12-04T06:31:59.704Z,94102.25
2022-12-04T06:34:26.993Z,94096.00
2022-12-04T06:36:54.272Z,94083.25
2022-12-04T06:39:21.297Z,94108.25
2022-12-04T06:41:48.184Z,94107.38
2022-12-04T06:44:16.078Z,94107.69
2022-12-04T06:46:46.702Z,94105.44
2022-12-04T06:49:14.156Z,94103.84
2022-12-04T06:51:41.083Z,94093.50
2022-12-04T06:54:08.660Z,94106.69
2022-12-04T06:56:35.657Z,94106.81
2022-12-04T06:59:04.305Z,94105.00
2022-12-04T07:01:33.502Z,94110.97
2022-12-04T07:04:03.787Z,94092.44
2022-12-04T07:06:36.200Z,94124.81
2022-12-04T07:09:10.633Z,94122.03
2022-12-04T07:11:39.523Z,94103.13
2022-12-04T07:14:06.284Z,94126.03
2022-12-04T07:16:38.634Z,94125.84
2022-12-04T07:19:08.530Z,94107.31
2022-12-04T07:21:35.311Z,94068.47
2022-12-04T07:24:02.260Z,94065.50
2022-12-04T07:26:30.567Z,94071.28
2022-12-04T07:28:58.857Z,94041.28
2022-12-04T07:31:27.734Z,94049.00
2022-12-04T07:33:55.646Z,94032.31
2022-12-04T07:36:25.070Z,94058.84
2022-12-04T07:38:52.279Z,94068.09
2022-12-04T07:41:19.850Z,94090.25
2022-12-04T07:43:47.332Z,94078.69
2022-12-04T07:46:17.350Z,94030.88
2022-12-04T07:48:44.451Z,94067.25
2022-12-04T07:51:12.849Z,94051.06
2022-12-04T07:53:40.487Z,94063.47
2022-12-04T07:56:08.931Z,94077.91
2022-12-04T07:58:35.773Z,94066.72
2022-12-04T08:01:22.998Z,94091.13
2022-12-04T08:03:53.706Z,94091.69
2022-12-04T08:06:23.951Z,94102.25
2022-12-04T08:08:51.928Z,94094.72
2022-12-04T08:11:22.434Z,94106.63
2022-12-04T08:13:55.206Z,94097.88
2022-12-04T08:16:21.987Z,94132.50
2022-12-04T08:18:48.938Z,94129.91
2022-12-04T08:21:21.524Z,94132.59
2022-12-04T08:23:50.140Z,94131.63
2022-12-04T08:26:17.345Z,94140.47
2022-12-04T08:28:44.541Z,94121.19
2022-12-04T08:31:14.692Z,94121.34
2022-12-04T08:33:43.216Z,94106.63
2022-12-04T08:36:13.587Z,94139.50
2022-12-04T08:38:40.702Z,94144.41
2022-12-04T08:41:11.432Z,94155.53
2022-12-04T08:43:39.158Z,94134.25
2022-12-04T08:46:09.226Z,94140.19
2022-12-04T08:48:36.425Z,94139.75
2022-12-04T08:51:04.489Z,94121.88
2022-12-04T08:53:32.444Z,94136.03
2022-12-04T08:56:01.451Z,94135.03
2022-12-04T08:58:28.783Z,94126.69
2022-12-04T09:00:55.857Z,94139.78
2022-12-04T09:03:29.191Z,94147.31
2022-12-04T09:06:01.855Z,94157.50
2022-12-04T09:08:28.916Z,94153.88
2022-12-04T09:11:02.124Z,94161.50
2022-12-04T09:13:28.891Z,94155.75
2022-12-04T09:15:56.033Z,94149.47
2022-12-04T09:18:22.816Z,94127.84
2022-12-04T09:20:57.765Z,94116.94
2022-12-04T09:23:25.828Z,94130.97
2022-12-04T09:25:52.684Z,94119.47
2022-12-04T09:28:20.536Z,94109.06
2022-12-04T09:30:57.473Z,94107.84
2022-12-04T09:33:24.801Z,94122.00
2022-12-04T09:35:51.668Z,94140.81
2022-12-04T09:38:18.437Z,94118.91
2022-12-04T09:41:16.994Z,94101.66
2022-12-04T09:44:01.033Z,94103.34
2022-12-04T09:46:51.384Z,94109.47
2022-12-04T09:49:21.426Z,94118.34
2022-12-04T09:51:50.054Z,94114.66
2022-12-04T09:54:21.075Z,94083.84
2022-12-04T09:56:55.001Z,94101.72
2022-12-04T09:59:26.042Z,94070.41
2022-12-04T10:02:22.291Z,94084.97
2022-12-04T10:04:49.773Z,94063.91
2022-12-04T10:07:24.852Z,94071.47
2022-12-04T10:09:58.729Z,94084.25
2022-12-04T10:12:26.397Z,94099.75
2022-12-04T10:15:11.646Z,94089.22
2022-12-04T10:17:50.919Z,94072.88
2022-12-04T10:20:35.297Z,94076.44
2022-12-04T10:23:21.933Z,94069.69
2022-12-04T10:25:51.990Z,94074.19
2022-12-04T10:28:27.942Z,94054.28
2022-12-04T10:31:00.041Z,94050.50
2022-12-04T10:33:51.037Z,94049.06
2022-12-04T10:36:20.961Z,94033.91
2022-12-04T10:38:52.612Z,94022.81
2022-12-04T10:41:28.299Z,94036.81
2022-12-04T10:43:55.464Z,94037.19
2022-12-04T10:46:25.927Z,94021.22
2022-12-04T10:48:58.032Z,94033.84
2022-12-04T10:51:25.467Z,94040.09
2022-12-04T10:53:52.241Z,94039.63
2022-12-04T10:56:25.505Z,94016.38
2022-12-04T10:59:01.024Z,94038.56
2022-12-04T11:01:33.107Z,94013.66
2022-12-04T11:04:07.877Z,94057.31
2022-12-04T11:06:35.431Z,94079.19
2022-12-04T11:09:03.872Z,94073.69
2022-12-04T11:11:33.134Z,94064.09
2022-12-04T11:14:14.820Z,94073.38
2022-12-04T11:16:46.396Z,94051.53
2022-12-04T11:19:22.198Z,94041.97
2022-12-04T11:21:50.364Z,94049.47
2022-12-04T11:24:37.961Z,94018.69
2022-12-04T11:27:06.364Z,94038.84
2022-12-04T11:29:47.759Z,94051.66
2022-12-04T11:32:24.369Z,94027.34
2022-12-04T11:34:55.982Z,94026.94
2022-12-04T11:37:30.478Z,94024.50
2022-12-04T11:39:57.853Z,94029.91
2022-12-04T11:42:30.107Z,94058.00
2022-12-04T11:45:01.517Z,94039.00
2022-12-04T11:47:31.261Z,94003.31
2022-12-04T11:50:11.881Z,93998.16
2022-12-04T11:52:52.209Z,94019.56
2022-12-04T11:55:33.433Z,94005.28
2022-12-04T11:58:02.968Z,94016.03
2022-12-04T12:00:32.974Z,94019.66
2022-12-04T12:03:18.831Z,94016.28
2022-12-04T12:05:54.661Z,93986.03
2022-12-04T12:09:02.263Z,94007.97
2022-12-04T12:11:42.533Z,94016.25
2022-12-04T12:14:48.797Z,93994.63
2022-12-04T12:17:27.404Z,93997.25
2022-12-04T12:20:09.337Z,93988.13
2022-12-04T12:23:11.296Z,93976.66
2022-12-04T12:26:15.445Z,93997.59
2022-12-04T12:29:05.154Z,93988.34
2022-12-04T12:32:15.302Z,94007.03
2022-12-04T12:34:46.200Z,94026.72
2022-12-04T12:37:27.996Z,93982.25
2022-12-04T12:40:15.085Z,93984.13
2022-12-04T12:42:58.775Z,93979.59
2022-12-04T12:45:52.798Z,93983.56
2022-12-04T12:48:43.164Z,93981.53
2022-12-04T12:51:30.049Z,93990.59
2022-12-04T12:54:28.489Z,93990.47
2022-12-04T12:57:04.552Z,94001.53
2022-12-04T12:59:32.552Z,93981.81
2022-12-04T13:02:14.656Z,93955.59
2022-12-04T13:04:50.370Z,93968.53
2022-12-04T13:07:17.175Z,93960.78
2022-12-04T13:09:53.149Z,93971.72
2022-12-04T13:12:22.798Z,93968.78
2022-12-04T13:14:49.510Z,93965.88
2022-12-04T13:17:21.055Z,93974.84
2022-12-04T13:19:53.960Z,93979.44
2022-12-04T13:22:29.971Z,94000.66
2022-12-04T13:25:34.275Z,93986.34
2022-12-04T13:28:04.141Z,93981.19
2022-12-04T13:30:41.975Z,93986.75
2022-12-04T13:33:29.131Z,93992.56
2022-12-04T13:36:17.521Z,93987.22
2022-12-04T13:39:02.494Z,93988.13
2022-12-04T13:41:33.352Z,93992.50
2022-12-04T13:44:05.655Z,93997.06
2022-12-04T13:46:40.669Z,94003.78
2022-12-04T13:49:32.434Z,93999.41
2022-12-04T13:52:20.829Z,93992.91
2022-12-04T13:55:00.489Z,93995.25
2022-12-04T13:57:28.423Z,94012.44
2022-12-04T14:00:23.673Z,94004.78
2022-12-04T14:02:57.356Z,94002.09
2022-12-04T14:05:40.333Z,93996.94
2022-12-04T14:08:18.569Z,94017.06
2022-12-04T14:10:57.398Z,94007.38
2022-12-04T14:13:28.613Z,93996.25
2022-12-04T14:16:08.330Z,93974.03
2022-12-04T14:18:35.179Z,93973.47
2022-12-04T14:21:05.068Z,93989.91
2022-12-04T14:23:37.957Z,94008.34
2022-12-04T14:26:05.488Z,93996.50
2022-12-04T14:28:35.994Z,93987.34
2022-12-04T14:31:24.048Z,93993.16
2022-12-04T14:33:53.181Z,93976.53
2022-12-04T14:36:34.252Z,93981.63
2022-12-04T14:39:31.745Z,93977.75
2022-12-04T14:42:23.568Z,93958.81
2022-12-04T14:44:59.337Z,93983.66
2022-12-04T14:47:44.388Z,94004.38
2022-12-04T14:50:16.941Z,93977.84
2022-12-04T14:52:54.541Z,93985.50
2022-12-04T14:55:32.507Z,93985.78
2022-12-04T14:58:21.488Z,93990.16
2022-12-04T15:00:53.790Z,93986.59
2022-12-04T15:03:21.592Z,93976.38
2022-12-04T15:05:50.782Z,93964.38
2022-12-04T15:08:20.298Z,93960.50
2022-12-04T15:11:09.719Z,93960.84
2022-12-04T15:13:38.862Z,93973.75
2022-12-04T15:16:22.576Z,93963.75
2022-12-04T15:18:59.453Z,93979.41
2022-12-04T15:21:41.088Z,93981.78
2022-12-04T15:24:19.579Z,94005.69
2022-12-04T15:26:48.642Z,94006.66
2022-12-04T15:29:25.588Z,94028.38
2022-12-04T15:31:56.932Z,94010.28
2022-12-04T15:34:39.992Z,93995.50
2022-12-04T15:37:14.295Z,94005.22
2022-12-04T15:39:41.273Z,94003.03
2022-12-04T15:42:29.560Z,94017.00
2022-12-04T15:45:02.737Z,94029.03
2022-12-04T15:47:32.930Z,94015.34
2022-12-04T15:50:14.497Z,94024.75
2022-12-04T15:52:59.579Z,94026.44
2022-12-04T15:55:29.544Z,94018.50
2022-12-04T15:58:00.053Z,94017.22
2022-12-04T16:00:34.320Z,94029.34
2022-12-04T16:03:01.427Z,94049.88
2022-12-04T16:05:37.569Z,94042.00
2022-12-04T16:08:26.069Z,94045.81
2022-12-04T16:11:08.670Z,94031.06
2022-12-04T16:13:38.692Z,94028.47
2022-12-04T16:16:11.576Z,94043.44
2022-12-04T16:18:39.753Z,94025.63
2022-12-04T16:21:14.536Z,94030.97
2022-12-04T16:23:41.267Z,94012.44
2022-12-04T16:26:16.224Z,94032.66
2022-12-04T16:28:43.694Z,94047.00
2022-12-04T16:31:14.852Z,94045.59
2022-12-04T16:33:41.630Z,94023.56
2022-12-04T16:36:11.324Z,94041.63
2022-12-04T16:38:38.019Z,94030.66
2022-12-04T16:41:05.859Z,94030.75
2022-12-04T16:43:32.923Z,94031.91
2022-12-04T16:46:01.402Z,94036.53
2022-12-04T16:48:29.772Z,94030.28
2022-12-04T16:50:56.583Z,94021.72
2022-12-04T16:53:23.486Z,94037.13
2022-12-04T16:55:51.759Z,94031.28
2022-12-04T16:58:20.180Z,94036.94
2022-12-04T17:00:54.018Z,94047.03
2022-12-04T17:03:26.467Z,94041.19
2022-12-04T17:05:54.098Z,94032.72
2022-12-04T17:08:21.080Z,94065.31
2022-12-04T17:10:48.541Z,94063.91
2022-12-04T17:13:18.509Z,94063.22
2022-12-04T17:15:45.880Z,94068.19
2022-12-04T17:18:17.703Z,94049.84
2022-12-04T17:20:47.400Z,94059.69
2022-12-04T17:23:14.439Z,94086.63
2022-12-04T17:25:41.156Z,94060.16
2022-12-04T17:28:08.395Z,94052.75
2022-12-04T17:30:36.369Z,94072.41
2022-12-04T17:33:04.971Z,94081.34
2022-12-04T17:35:31.775Z,94085.25
2022-12-04T17:38:05.578Z,94102.72
2022-12-04T17:40:32.639Z,94090.53
2022-12-04T17:43:00.602Z,94061.53
2022-12-04T17:45:29.588Z,94099.44
2022-12-04T17:47:56.449Z,94097.00
2022-12-04T17:50:23.385Z,94090.19
2022-12-04T17:52:50.185Z,94100.09
2022-12-04T17:55:18.546Z,94112.44
2022-12-04T17:57:45.947Z,94103.94
2022-12-04T18:00:12.947Z,94109.00
2022-12-04T18:02:41.630Z,94126.66
2022-12-04T18:05:09.568Z,94120.69
2022-12-04T18:07:36.376Z,94120.13
2022-12-04T18:10:04.032Z,94122.63
2022-12-04T18:12:31.289Z,94114.34
2022-12-04T18:14:57.967Z,94129.34
2022-12-04T18:17:24.941Z,94121.09
2022-12-04T18:19:51.640Z,94112.06
2022-12-04T18:22:18.597Z,94127.38
2022-12-04T18:24:46.205Z,94119.59
2022-12-04T18:27:12.909Z,94126.94
2022-12-04T18:29:40.089Z,94124.28
2022-12-04T18:32:07.043Z,94119.59
2022-12-04T18:34:34.142Z,94108.84
2022-12-04T18:37:01.478Z,94113.59
2022-12-04T18:39:28.216Z,94122.94
2022-12-04T18:41:56.965Z,94116.28
2022-12-04T18:44:24.231Z,94107.50
2022-12-04T18:46:50.901Z,94101.88
2022-12-04T18:49:17.840Z,94104.50
2022-12-04T18:51:49.710Z,94095.28
2022-12-04T18:54:23.075Z,94070.09
2022-12-04T18:56:51.375Z,94091.91
2022-12-04T18:59:25.265Z,94083.88
2022-12-04T19:01:53.904Z,94083.66
2022-12-04T19:04:23.358Z,94103.56
2022-12-04T19:06:54.020Z,94102.69
2022-12-04T19:09:40.982Z,94084.00
2022-12-04T19:12:12.021Z,94088.66
2022-12-04T19:14:40.043Z,94104.81
2022-12-04T19:17:07.196Z,94102.88
2022-12-04T19:19:34.547Z,94099.13
2022-12-04T19:22:02.467Z,94142.16
2022-12-04T19:24:29.193Z,94112.06
2022-12-04T19:26:56.038Z,94095.28
2022-12-04T19:29:22.821Z,94097.50
2022-12-04T19:31:52.457Z,94116.78
2022-12-04T19:34:22.829Z,94114.59
2022-12-04T19:36:51.213Z,94112.69
2022-12-04T19:39:17.961Z,94118.41
2022-12-04T19:41:47.303Z,94105.44
2022-12-04T19:44:46.928Z,94108.94
2022-12-04T19:47:02.265Z,94126.38
2022-12-04T19:49:29.341Z,94143.19
2022-12-04T19:51:56.057Z,94147.88
2022-12-04T19:54:24.227Z,94119.97
2022-12-04T19:56:52.533Z,94137.66
2022-12-04T19:59:20.372Z,94131.31
2022-12-04T20:01:48.234Z,94125.50
2022-12-04T20:04:16.140Z,94137.69
2022-12-04T20:06:45.837Z,94148.97
2022-12-04T20:09:16.349Z,94164.13
2022-12-04T20:11:43.202Z,94130.44
2022-12-04T20:14:10.561Z,94158.75
2022-12-04T20:16:38.038Z,94138.00
2022-12-04T20:19:07.061Z,94167.56
2022-12-04T20:21:34.105Z,94188.22
2022-12-04T20:24:05.385Z,94191.44
2022-12-04T20:26:35.674Z,94174.66
2022-12-04T20:29:03.419Z,94159.88
2022-12-04T20:31:35.847Z,94172.94
2022-12-04T20:34:05.503Z,94174.69
2022-12-04T20:36:37.261Z,94209.28
2022-12-04T20:39:05.431Z,94231.63
2022-12-04T20:41:34.692Z,94205.81
2022-12-04T20:44:04.825Z,94217.34
2022-12-04T20:46:35.325Z,94218.38
2022-12-04T20:49:06.710Z,94228.19
2022-12-04T20:51:39.010Z,94230.06
2022-12-04T20:54:07.282Z,94242.94
2022-12-04T20:56:37.065Z,94230.25
2022-12-04T20:59:07.667Z,94222.72
2022-12-04T21:01:35.974Z,94226.03
2022-12-04T21:04:04.158Z,94215.34
2022-12-04T21:06:37.029Z,94218.19
2022-12-04T21:09:08.042Z,94194.75
2022-12-04T21:11:37.065Z,94222.88
2022-12-04T21:14:26.991Z,94211.09
2022-12-04T21:16:53.728Z,94207.66
2022-12-04T21:19:22.197Z,94201.97
2022-12-04T21:21:50.092Z,94205.53
2022-12-04T21:24:19.187Z,94214.66
2022-12-04T21:26:47.722Z,94192.06
2022-12-04T21:29:15.855Z,94213.25
2022-12-04T21:31:44.551Z,94229.63
2022-12-04T21:34:14.133Z,94216.63
2022-12-04T21:36:41.307Z,94233.56
2022-12-04T21:39:08.123Z,94195.91
2022-12-04T21:41:53.604Z,94204.81
2022-12-04T21:44:21.685Z,94210.69
2022-12-04T21:46:50.119Z,94219.88
2022-12-04T21:49:19.170Z,94215.41
2022-12-04T21:52:02.334Z,94197.59
2022-12-04T21:54:29.771Z,94203.09
2022-12-04T21:56:57.613Z,94225.94
2022-12-04T21:59:25.821Z,94242.50
2022-12-04T22:01:53.034Z,94242.94
2022-12-04T22:04:20.201Z,94212.53
2022-12-04T22:06:48.173Z,94199.44
2022-12-04T22:09:14.846Z,94193.56
2022-12-04T22:11:42.403Z,94203.41
2022-12-04T22:14:10.438Z,94202.94
2022-12-04T22:16:41.993Z,94213.91
2022-12-04T22:19:11.503Z,94256.09
2022-12-04T22:21:38.886Z,94262.94
2022-12-04T22:24:06.607Z,94262.59
2022-12-04T22:26:33.831Z,94259.03
2022-12-04T22:29:00.951Z,94271.41
2022-12-04T22:31:29.528Z,94298.09
2022-12-04T22:33:58.829Z,94297.69
2022-12-04T22:36:28.971Z,94310.19
2022-12-04T22:39:11.450Z,94289.97
2022-12-04T22:41:38.634Z,94275.91
2022-12-04T22:44:06.340Z,94285.72
2022-12-04T22:46:34.376Z,94282.16
2022-12-04T22:49:01.150Z,94271.38
2022-12-04T22:51:28.349Z,94286.50
2022-12-04T22:53:57.357Z,94306.22
2022-12-04T22:56:25.609Z,94319.41
2022-12-04T22:58:53.480Z,94335.63
2022-12-04T23:01:29.071Z,94306.13
2022-12-04T23:03:56.754Z,94313.72
2022-12-04T23:06:26.988Z,94323.75
2022-12-04T23:08:59.036Z,94319.16
2022-12-04T23:11:26.988Z,94327.81
2022-12-04T23:14:00.294Z,94334.13
2022-12-04T23:16:29.415Z,94284.66
2022-12-04T23:18:57.058Z,94322.03
2022-12-04T23:21:24.577Z,94294.16
2022-12-04T23:23:53.490Z,94281.53
2022-12-04T23:26:23.721Z,94288.25
2022-12-04T23:28:50.843Z,94283.06
2022-12-04T23:31:19.118Z,94306.50
2022-12-04T23:33:46.091Z,94273.06
2022-12-04T23:36:13.763Z,94291.00
2022-12-04T23:38:42.164Z,94299.28
2022-12-04T23:41:20.408Z,94327.13
2022-12-04T23:43:49.222Z,94307.25
2022-12-04T23:46:19.774Z,94296.41
2022-12-04T23:48:46.988Z,94312.19
2022-12-04T23:51:16.424Z,94298.56
2022-12-04T23:53:43.142Z,94311.97
2022-12-04T23:56:14.735Z,94332.25
2022-12-04T23:58:43.315Z,94343.00
